Etusivu
METAR-TAF:

METAR-TAF

Lentoasemat :

Uppsala, Ruotsi

Leveyspiiri: 59-53N, Pituuspiiri: 017-36E, korkeus merenpinnasta: 21 m

Tämänhetkinen sää

Tämä raportti tehtiin 23 minuuttia sitten, kello 01.50 UTC
Tuuli 2 kn etelästä
Lämpötila 8°C
Kosteus 100%
Ilmanpaine 1015 hPa
Näkyvyys 10 km tai enemmän

METAR: ESCM 130150Z AUTO 19002KT 9999 SCT072/// BKN092/// 08/08 Q1015

Aika: 04:13 (02:13 UTC)


TAF: puuttuu

Säähavainnot ja -ennusteet yli 4000 lentoasemalta (METAR- ja TAF-raportit).

Käytössä olevat sääasemat on merkitty karttaan keltaisilla ja punaisilla pisteillä.

Aseta hiiri pisteen päälle nähdäksesi sääaseman nimen.

Klikkaa sitten nähdäksesi säähavainnot ja -ennusteet.

Kartan vaihtaminen: klikkaa mustalla rastilla varustettuja vihreitä pisteitä, niin voit zoomata sisään; viivalla varustettua vihreää pistettä, niin voit zoomata ulos tai vihreitä nuolia, niin pääset viereisille kartoille.


METAR-TAF: